Time;durP1;ratioP1;P1;durP2;ratioP2;P2;SDS_P1;SDS_P2;PMS_P1;PMS_P2;Temp;Humidity;BMP_temperature;BMP_pressure;BME280_temperature;BME280_humidity;BME280_pressure;Samples;Min_cycle;Max_cycle;Signal;HPM_P1;HPM_P2
2023/03/23 00:02:32;;;;;;;1.00;0.90;;;;;;;;;;5040034;28;20197;-58
2023/03/23 00:05:00;;;;;;;0.82;0.80;;;;;;;;;;5026661;28;20544;-57
2023/03/23 00:07:27;;;;;;;0.77;0.77;;;;;;;;;;5041439;28;20270;-57
2023/03/23 00:09:53;;;;;;;1.25;0.90;;;;;;;;;;5039985;28;20187;-57
2023/03/23 00:12:20;;;;;;;1.48;0.90;;;;;;;;;;5035835;28;20208;-58
2023/03/23 00:14:46;;;;;;;1.20;0.80;;;;;;;;;;5036124;28;20196;-57
2023/03/23 00:17:14;;;;;;;0.98;0.70;;;;;;;;;;5028478;28;20445;-57
2023/03/23 00:19:51;;;;;;;1.77;0.90;;;;;;;;;;5035707;28;20177;-57
2023/03/23 00:22:19;;;;;;;1.10;0.80;;;;;;;;;;5034668;28;20246;-57
2023/03/23 00:24:45;;;;;;;1.15;0.82;;;;;;;;;;5030481;28;20184;-57
2023/03/23 00:27:12;;;;;;;1.13;0.70;;;;;;;;;;5036068;28;20219;-57
2023/03/23 00:29:38;;;;;;;1.33;0.85;;;;;;;;;;5037653;28;20180;-58
2023/03/23 00:32:04;;;;;;;0.70;0.70;;;;;;;;;;5032045;28;20201;-58
2023/03/23 00:34:33;;;;;;;1.38;0.77;;;;;;;;;;5043450;28;21201;-57
2023/03/23 00:36:59;;;;;;;1.23;0.63;;;;;;;;;;5046138;28;20211;-58
2023/03/23 00:39:26;;;;;;;1.33;1.00;;;;;;;;;;5050305;28;20211;-58
2023/03/23 00:41:54;;;;;;;0.93;0.80;;;;;;;;;;5030347;28;20299;-57
2023/03/23 00:44:23;;;;;;;2.25;0.80;;;;;;;;;;5048917;28;20186;-58
2023/03/23 00:46:52;;;;;;;1.02;0.80;;;;;;;;;;5037571;28;20191;-58
2023/03/23 00:49:19;;;;;;;1.13;0.75;;;;;;;;;;5041898;28;20184;-57
2023/03/23 00:51:45;;;;;;;0.80;0.80;;;;;;;;;;5034625;28;20188;-58
2023/03/23 00:54:12;;;;;;;1.30;1.00;;;;;;;;;;5030666;28;20276;-58
2023/03/23 00:56:41;;;;;;;0.82;0.82;;;;;;;;;;5038842;28;20319;-58
2023/03/23 00:59:07;;;;;;;1.10;0.70;;;;;;;;;;5048152;28;20184;-57
2023/03/23 01:01:33;;;;;;;0.73;0.73;;;;;;;;;;5031770;28;20207;-58
2023/03/23 01:04:03;;;;;;;1.40;0.80;;;;;;;;;;5037740;28;20183;-58
2023/03/23 01:06:30;;;;;;;0.82;0.82;;;;;;;;;;5031646;28;20194;-57
2023/03/23 01:08:56;;;;;;;1.25;0.80;;;;;;;;;;5045061;28;20179;-57
2023/03/23 01:11:23;;;;;;;1.00;0.70;;;;;;;;;;5035944;28;20246;-58
2023/03/23 01:13:49;;;;;;;1.05;0.75;;;;;;;;;;5040722;28;20187;-57
2023/03/23 01:16:15;;;;;;;1.20;0.85;;;;;;;;;;5035826;28;20179;-57
2023/03/23 01:18:41;;;;;;;1.85;0.75;;;;;;;;;;5040540;28;20179;-58
2023/03/23 01:21:08;;;;;;;0.65;0.60;;;;;;;;;;5026128;28;20200;-57
2023/03/23 01:23:35;;;;;;;0.90;0.85;;;;;;;;;;5040889;28;20183;-56
2023/03/23 01:26:04;;;;;;;1.33;0.88;;;;;;;;;;5033222;28;20180;-57
2023/03/23 01:28:30;;;;;;;2.45;0.93;;;;;;;;;;5044994;28;20179;-57
2023/03/23 01:31:00;;;;;;;0.75;0.75;;;;;;;;;;5029293;28;20194;-58
2023/03/23 01:33:26;;;;;;;1.08;0.82;;;;;;;;;;5026047;28;20200;-57
2023/03/23 01:35:52;;;;;;;1.90;0.90;;;;;;;;;;5034215;28;20207;-57
2023/03/23 01:38:18;;;;;;;0.77;0.75;;;;;;;;;;5033891;28;20211;-58
2023/03/23 01:40:44;;;;;;;0.80;0.80;;;;;;;;;;5044042;28;20566;-57
2023/03/23 01:43:13;;;;;;;1.25;1.02;;;;;;;;;;5032264;28;20184;-59
2023/03/23 01:45:40;;;;;;;2.03;0.80;;;;;;;;;;5030233;28;20183;-58
2023/03/23 01:48:09;;;;;;;1.58;0.95;;;;;;;;;;5046761;28;20586;-58
2023/03/23 01:50:38;;;;;;;0.93;0.90;;;;;;;;;;5021902;28;20183;-58
2023/03/23 01:53:08;;;;;;;0.73;0.73;;;;;;;;;;5054835;28;20573;-57
2023/03/23 01:55:35;;;;;;;1.08;0.93;;;;;;;;;;5033780;28;20237;-57
2023/03/23 01:58:01;;;;;;;1.08;0.90;;;;;;;;;;5029961;28;20294;-57
2023/03/23 02:00:27;;;;;;;0.85;0.80;;;;;;;;;;5041075;28;20231;-57
2023/03/23 02:02:53;;;;;;;1.27;0.70;;;;;;;;;;5031110;28;20471;-58
2023/03/23 02:05:24;;;;;;;0.80;0.80;;;;;;;;;;5030735;28;20195;-58
2023/03/23 02:07:50;;;;;;;0.88;0.70;;;;;;;;;;5045338;28;20242;-57
2023/03/23 02:10:16;;;;;;;1.50;0.70;;;;;;;;;;5051024;28;20187;-58
2023/03/23 02:12:42;;;;;;;1.65;1.05;;;;;;;;;;5038744;28;20191;-57
2023/03/23 02:15:09;;;;;;;1.40;0.70;;;;;;;;;;5032357;28;20199;-57
2023/03/23 02:17:45;;;;;;;1.25;0.77;;;;;;;;;;5048252;28;20195;-57
2023/03/23 02:20:27;;;;;;;0.90;0.90;;;;;;;;;;5036834;28;20184;-57
2023/03/23 02:22:53;;;;;;;1.13;0.93;;;;;;;;;;5036292;28;20175;-57
2023/03/23 02:25:37;;;;;;;0.82;0.80;;;;;;;;;;5043256;28;20551;-57
2023/03/23 02:28:22;;;;;;;1.52;0.90;;;;;;;;;;5035756;28;20278;-57
2023/03/23 02:30:48;;;;;;;1.05;0.95;;;;;;;;;;5041206;28;20180;-57
2023/03/23 02:33:29;;;;;;;0.70;0.70;;;;;;;;;;5054353;28;20277;-57
2023/03/23 02:35:58;;;;;;;0.70;0.63;;;;;;;;;;5041949;28;20198;-57
2023/03/23 02:38:30;;;;;;;0.90;0.90;;;;;;;;;;5048176;28;20212;-57
2023/03/23 02:40:57;;;;;;;0.82;0.82;;;;;;;;;;5038622;28;20180;-58
2023/03/23 02:43:24;;;;;;;0.95;0.80;;;;;;;;;;5036995;28;20429;-57
2023/03/23 02:45:51;;;;;;;1.35;0.98;;;;;;;;;;5047479;28;20218;-57
2023/03/23 02:48:19;;;;;;;1.10;1.00;;;;;;;;;;5051204;28;20518;-57
2023/03/23 02:50:47;;;;;;;1.27;0.85;;;;;;;;;;5041011;28;20219;-57
2023/03/23 02:53:15;;;;;;;0.70;0.70;;;;;;;;;;5052853;28;20278;-57
2023/03/23 02:55:42;;;;;;;1.65;0.90;;;;;;;;;;5036735;28;20459;-57
2023/03/23 02:58:09;;;;;;;2.10;0.98;;;;;;;;;;5032554;28;20226;-57
2023/03/23 03:00:35;;;;;;;1.17;0.70;;;;;;;;;;5030585;28;20500;-57
2023/03/23 03:03:02;;;;;;;1.10;1.00;;;;;;;;;;5023598;28;20184;-57
2023/03/23 03:05:47;;;;;;;1.30;0.90;;;;;;;;;;5034526;28;20204;-57
2023/03/23 03:08:17;;;;;;;2.60;1.10;;;;;;;;;;5037461;28;20191;-58
2023/03/23 03:10:52;;;;;;;3.10;1.08;;;;;;;;;;5046135;28;20217;-56
2023/03/23 03:13:38;;;;;;;1.10;1.00;;;;;;;;;;5034545;28;20596;-57
2023/03/23 03:16:19;;;;;;;2.63;1.27;;;;;;;;;;5028769;28;20198;-58
2023/03/23 03:18:45;;;;;;;1.55;1.20;;;;;;;;;;5030293;28;20494;-58
2023/03/23 03:21:12;;;;;;;2.20;1.10;;;;;;;;;;5044127;28;20210;-58
2023/03/23 03:23:41;;;;;;;0.98;0.98;;;;;;;;;;5048281;28;20201;-58
2023/03/23 03:26:09;;;;;;;1.20;1.00;;;;;;;;;;5032549;28;20176;-57
2023/03/23 03:28:36;;;;;;;1.23;1.13;;;;;;;;;;5045507;28;20217;-57
2023/03/23 03:31:03;;;;;;;1.23;1.10;;;;;;;;;;5031436;28;20242;-57
2023/03/23 03:33:30;;;;;;;3.65;1.52;;;;;;;;;;5029958;28;20208;-57
2023/03/23 03:35:57;;;;;;;1.08;1.00;;;;;;;;;;5035976;28;20183;-57
2023/03/23 03:38:24;;;;;;;1.10;0.80;;;;;;;;;;5035800;28;20604;-57
2023/03/23 03:40:50;;;;;;;1.70;1.10;;;;;;;;;;5034653;28;20184;-57
2023/03/23 03:43:16;;;;;;;1.30;1.20;;;;;;;;;;5035383;28;20176;-57
2023/03/23 03:45:42;;;;;;;1.88;1.17;;;;;;;;;;5033711;28;20605;-57
2023/03/23 03:48:08;;;;;;;1.95;1.30;;;;;;;;;;5031123;28;20303;-58
2023/03/23 03:50:34;;;;;;;1.65;1.30;;;;;;;;;;5044051;28;20179;-57
2023/03/23 03:53:00;;;;;;;1.63;1.30;;;;;;;;;;5046093;28;20187;-57
2023/03/23 03:55:27;;;;;;;1.15;1.05;;;;;;;;;;5043068;28;20195;-57
2023/03/23 03:57:54;;;;;;;1.60;1.15;;;;;;;;;;5040083;28;20204;-57
2023/03/23 04:00:20;;;;;;;2.22;1.00;;;;;;;;;;5042942;28;20266;-58
2023/03/23 04:02:50;;;;;;;2.40;1.10;;;;;;;;;;5024879;28;20187;-57
2023/03/23 04:05:16;;;;;;;1.45;1.33;;;;;;;;;;5036445;28;20186;-57
2023/03/23 04:07:42;;;;;;;2.55;1.13;;;;;;;;;;5034074;28;20188;-57
2023/03/23 04:10:08;;;;;;;1.40;1.17;;;;;;;;;;5036078;28;20571;-57
2023/03/23 04:12:35;;;;;;;1.40;1.27;;;;;;;;;;5044692;28;20198;-57
2023/03/23 04:15:01;;;;;;;1.30;0.95;;;;;;;;;;5040256;28;20567;-57
2023/03/23 04:17:27;;;;;;;1.13;1.02;;;;;;;;;;5022906;28;20289;-57
2023/03/23 04:19:56;;;;;;;1.50;1.20;;;;;;;;;;5036760;28;20242;-57
2023/03/23 04:22:29;;;;;;;2.92;1.20;;;;;;;;;;5030618;28;20200;-57
2023/03/23 04:24:58;;;;;;;3.30;1.27;;;;;;;;;;5035122;28;20567;-57
2023/03/23 04:27:24;;;;;;;1.52;1.00;;;;;;;;;;5038485;28;20186;-58
2023/03/23 04:29:50;;;;;;;1.05;1.00;;;;;;;;;;5028477;28;20184;-57
2023/03/23 04:32:17;;;;;;;1.50;1.10;;;;;;;;;;5032294;28;20262;-57
2023/03/23 04:34:43;;;;;;;2.17;1.10;;;;;;;;;;5035156;28;20185;-57
2023/03/23 04:37:09;;;;;;;1.23;1.10;;;;;;;;;;5045689;28;20219;-57
2023/03/23 04:39:35;;;;;;;1.23;1.00;;;;;;;;;;5034728;28;20184;-57
2023/03/23 04:42:01;;;;;;;1.40;1.30;;;;;;;;;;5031542;28;20405;-58
2023/03/23 04:44:29;;;;;;;1.73;1.13;;;;;;;;;;5038462;28;20207;-57
2023/03/23 04:46:55;;;;;;;1.48;1.10;;;;;;;;;;5025945;28;20234;-57
2023/03/23 04:49:21;;;;;;;2.50;1.30;;;;;;;;;;5034874;28;20176;-57
2023/03/23 04:51:48;;;;;;;2.55;1.25;;;;;;;;;;5041657;28;20447;-58
2023/03/23 04:54:14;;;;;;;1.70;1.17;;;;;;;;;;5037150;28;20213;-57
2023/03/23 04:56:41;;;;;;;1.95;1.23;;;;;;;;;;5037023;28;20226;-57
2023/03/23 04:59:07;;;;;;;1.40;0.90;;;;;;;;;;5040348;28;20229;-57
2023/03/23 05:01:33;;;;;;;1.30;0.95;;;;;;;;;;5041516;28;20254;-57
2023/03/23 05:04:00;;;;;;;1.33;1.10;;;;;;;;;;5031585;28;20187;-57
2023/03/23 05:06:26;;;;;;;1.42;1.20;;;;;;;;;;5033660;28;20582;-57
2023/03/23 05:08:52;;;;;;;1.75;1.00;;;;;;;;;;5024110;28;20179;-58
2023/03/23 05:11:17;;;;;;;2.90;0.98;;;;;;;;;;5039524;28;20579;-57
2023/03/23 05:13:44;;;;;;;2.05;1.33;;;;;;;;;;5031120;28;20182;-57
2023/03/23 05:16:10;;;;;;;2.30;1.27;;;;;;;;;;5046259;28;20179;-57
2023/03/23 05:18:36;;;;;;;1.13;1.00;;;;;;;;;;5028328;28;20610;-57
2023/03/23 05:21:02;;;;;;;0.98;0.98;;;;;;;;;;5029496;28;20200;-57
2023/03/23 05:23:30;;;;;;;1.90;1.20;;;;;;;;;;5028052;28;20226;-57
2023/03/23 05:26:00;;;;;;;1.42;1.20;;;;;;;;;;5042067;28;20185;-57
2023/03/23 05:28:26;;;;;;;1.25;1.17;;;;;;;;;;5033829;28;20567;-57
2023/03/23 05:30:53;;;;;;;2.35;1.00;;;;;;;;;;5034777;28;20180;-57
2023/03/23 05:33:19;;;;;;;1.42;1.15;;;;;;;;;;5030907;28;20559;-57
2023/03/23 05:35:47;;;;;;;1.33;1.05;;;;;;;;;;5034478;28;20188;-57
2023/03/23 05:38:14;;;;;;;1.20;1.10;;;;;;;;;;5033670;28;20223;-57
2023/03/23 05:40:41;;;;;;;1.83;1.17;;;;;;;;;;5040819;28;20638;-57
2023/03/23 05:43:07;;;;;;;1.27;1.00;;;;;;;;;;5033905;28;20172;-57
2023/03/23 05:45:33;;;;;;;1.13;1.10;;;;;;;;;;5039771;28;20184;-57
2023/03/23 05:47:59;;;;;;;1.10;0.90;;;;;;;;;;5032901;28;20638;-58
2023/03/23 05:50:26;;;;;;;2.55;1.30;;;;;;;;;;5039088;28;20266;-57
2023/03/23 05:52:51;;;;;;;3.40;1.13;;;;;;;;;;5038777;28;20210;-57
2023/03/23 05:55:18;;;;;;;2.17;1.00;;;;;;;;;;5030785;28;20591;-57
2023/03/23 05:57:43;;;;;;;1.60;1.13;;;;;;;;;;5036127;28;20222;-58
2023/03/23 06:00:11;;;;;;;1.38;1.27;;;;;;;;;;5032617;28;20202;-57
2023/03/23 06:02:37;;;;;;;2.92;1.23;;;;;;;;;;5038208;28;20451;-57
2023/03/23 06:05:03;;;;;;;2.25;1.30;;;;;;;;;;5041327;28;20258;-57
2023/03/23 06:07:30;;;;;;;3.58;1.45;;;;;;;;;;5041679;28;20915;-57
2023/03/23 06:09:56;;;;;;;6.07;1.08;;;;;;;;;;5033106;28;20195;-57
2023/03/23 06:12:22;;;;;;;2.35;1.40;;;;;;;;;;5031535;28;20230;-57
2023/03/23 06:14:48;;;;;;;1.48;1.17;;;;;;;;;;5043313;28;20214;-57
2023/03/23 06:17:18;;;;;;;2.83;1.38;;;;;;;;;;5037899;28;20215;-57
2023/03/23 06:19:49;;;;;;;1.52;1.33;;;;;;;;;;5032874;28;20275;-58
2023/03/23 06:22:16;;;;;;;1.38;1.10;;;;;;;;;;5042263;28;20183;-57
2023/03/23 06:24:42;;;;;;;2.33;1.20;;;;;;;;;;5044583;28;20167;-57
2023/03/23 06:27:09;;;;;;;1.83;1.30;;;;;;;;;;5039051;28;20187;-57
2023/03/23 06:29:35;;;;;;;1.10;0.98;;;;;;;;;;5028647;28;20179;-57
2023/03/23 06:32:02;;;;;;;1.98;1.23;;;;;;;;;;5032542;28;20191;-57
2023/03/23 06:34:29;;;;;;;1.50;1.10;;;;;;;;;;5027375;28;20184;-58
2023/03/23 06:36:55;;;;;;;1.70;1.23;;;;;;;;;;5025550;28;20199;-57
2023/03/23 06:39:22;;;;;;;1.00;0.90;;;;;;;;;;5037113;28;20167;-57
2023/03/23 06:41:48;;;;;;;2.15;1.30;;;;;;;;;;5044917;28;20195;-57
2023/03/23 06:44:14;;;;;;;1.35;1.17;;;;;;;;;;5028931;28;20206;-57
2023/03/23 06:46:41;;;;;;;2.88;1.27;;;;;;;;;;5045056;28;20172;-58
2023/03/23 06:49:07;;;;;;;2.97;1.15;;;;;;;;;;5048889;28;20191;-58
2023/03/23 06:51:33;;;;;;;1.38;1.02;;;;;;;;;;5045860;28;20204;-58
2023/03/23 06:53:59;;;;;;;1.30;1.20;;;;;;;;;;5042192;28;20257;-58
2023/03/23 06:56:25;;;;;;;5.00;1.30;;;;;;;;;;5041071;28;20175;-57
2023/03/23 06:58:51;;;;;;;1.60;1.17;;;;;;;;;;5049165;28;20186;-57
2023/03/23 07:01:17;;;;;;;2.25;1.38;;;;;;;;;;5035943;28;20200;-57
2023/03/23 07:03:44;;;;;;;1.73;1.15;;;;;;;;;;5040914;28;20621;-57
2023/03/23 07:06:10;;;;;;;1.60;1.20;;;;;;;;;;5030022;28;20180;-58
2023/03/23 07:08:36;;;;;;;1.48;1.15;;;;;;;;;;5040466;28;20182;-57
2023/03/23 07:11:02;;;;;;;2.30;1.30;;;;;;;;;;5042658;28;20678;-57
2023/03/23 07:13:28;;;;;;;1.30;1.20;;;;;;;;;;5034830;28;20188;-57
2023/03/23 07:15:54;;;;;;;1.60;1.35;;;;;;;;;;5045032;28;20188;-57
2023/03/23 07:18:20;;;;;;;1.80;1.10;;;;;;;;;;5025786;28;20231;-57
2023/03/23 07:20:50;;;;;;;1.63;1.30;;;;;;;;;;5035533;28;20200;-58
2023/03/23 07:23:16;;;;;;;1.90;1.27;;;;;;;;;;5040172;28;20206;-56
2023/03/23 07:25:43;;;;;;;1.60;1.30;;;;;;;;;;5040450;28;20215;-58
2023/03/23 07:28:09;;;;;;;1.70;1.17;;;;;;;;;;5043506;28;20486;-57
2023/03/23 07:30:35;;;;;;;1.38;1.27;;;;;;;;;;5033454;28;20263;-57
2023/03/23 07:33:04;;;;;;;1.60;1.50;;;;;;;;;;5038471;28;20175;-58
2023/03/23 07:35:31;;;;;;;1.25;1.15;;;;;;;;;;5035931;28;20184;-58
2023/03/23 07:37:57;;;;;;;1.30;1.20;;;;;;;;;;5039539;28;20199;-57
2023/03/23 07:40:23;;;;;;;1.38;1.27;;;;;;;;;;5039642;28;20566;-58
2023/03/23 07:42:52;;;;;;;5.20;1.30;;;;;;;;;;5037656;28;20528;-57
2023/03/23 07:45:18;;;;;;;1.42;1.13;;;;;;;;;;5035469;28;20547;-58
2023/03/23 07:47:44;;;;;;;1.25;1.10;;;;;;;;;;5042287;28;20215;-58
2023/03/23 07:50:11;;;;;;;1.58;1.30;;;;;;;;;;5042843;28;20175;-57
2023/03/23 07:52:37;;;;;;;1.80;1.38;;;;;;;;;;5043599;28;20180;-57
2023/03/23 07:55:04;;;;;;;2.10;1.25;;;;;;;;;;5048235;28;20266;-57
2023/03/23 07:57:32;;;;;;;1.58;1.42;;;;;;;;;;5035380;28;20207;-57
2023/03/23 07:59:59;;;;;;;1.73;1.30;;;;;;;;;;5024166;28;20214;-57
2023/03/23 08:02:25;;;;;;;1.52;1.42;;;;;;;;;;5039313;28;20176;-57
2023/03/23 08:04:51;;;;;;;1.35;1.25;;;;;;;;;;5043524;28;20606;-58
2023/03/23 08:07:18;;;;;;;2.88;1.30;;;;;;;;;;5033703;28;20571;-57
2023/03/23 08:09:45;;;;;;;2.03;1.25;;;;;;;;;;5041400;28;20187;-58
2023/03/23 08:12:11;;;;;;;1.60;1.30;;;;;;;;;;5044161;28;20542;-57
2023/03/23 08:14:38;;;;;;;2.00;1.23;;;;;;;;;;5038037;28;20514;-57
2023/03/23 08:17:04;;;;;;;1.77;1.30;;;;;;;;;;5052942;28;20199;-57
2023/03/23 08:19:30;;;;;;;1.35;1.20;;;;;;;;;;5032067;28;20568;-57
2023/03/23 08:21:56;;;;;;;2.25;1.50;;;;;;;;;;5044840;28;20180;-56
2023/03/23 08:24:23;;;;;;;2.60;1.50;;;;;;;;;;5031523;28;20168;-57
2023/03/23 08:26:49;;;;;;;3.10;1.83;;;;;;;;;;5029862;28;20563;-57
2023/03/23 08:29:16;;;;;;;2.03;1.20;;;;;;;;;;5025403;28;20188;-57
2023/03/23 08:31:42;;;;;;;2.97;1.30;;;;;;;;;;5050103;28;20257;-57
2023/03/23 08:34:07;;;;;;;1.40;1.30;;;;;;;;;;5039132;28;20191;-57
2023/03/23 08:36:34;;;;;;;1.58;1.25;;;;;;;;;;5037779;28;20213;-57
2023/03/23 08:39:00;;;;;;;2.20;1.42;;;;;;;;;;5031842;28;20271;-57
2023/03/23 08:41:26;;;;;;;3.08;1.75;;;;;;;;;;5050367;28;20489;-57
2023/03/23 08:43:52;;;;;;;2.20;1.27;;;;;;;;;;5036852;28;20188;-57
2023/03/23 08:46:19;;;;;;;1.48;1.35;;;;;;;;;;5040255;28;20709;-57
2023/03/23 08:48:45;;;;;;;2.03;1.40;;;;;;;;;;5042248;28;20179;-57
2023/03/23 08:51:11;;;;;;;2.40;1.40;;;;;;;;;;5043307;28;20186;-57
2023/03/23 08:53:37;;;;;;;1.55;1.38;;;;;;;;;;5029155;28;20184;-57
2023/03/23 08:56:05;;;;;;;1.73;1.60;;;;;;;;;;5038384;28;20179;-57
2023/03/23 08:58:31;;;;;;;1.40;1.30;;;;;;;;;;5038511;28;20633;-57
2023/03/23 09:00:56;;;;;;;1.88;1.30;;;;;;;;;;5036942;28;20187;-57
2023/03/23 09:03:23;;;;;;;1.70;1.45;;;;;;;;;;5046602;28;20176;-57
2023/03/23 09:05:49;;;;;;;1.67;1.40;;;;;;;;;;5052528;28;20321;-58
2023/03/23 09:08:15;;;;;;;1.67;1.30;;;;;;;;;;5054264;28;20258;-57
2023/03/23 09:10:41;;;;;;;2.20;1.40;;;;;;;;;;5045107;28;20187;-57
2023/03/23 09:13:07;;;;;;;1.27;1.17;;;;;;;;;;5046941;28;20294;-57
2023/03/23 09:15:33;;;;;;;1.48;1.30;;;;;;;;;;5046731;28;20198;-57
2023/03/23 09:18:00;;;;;;;1.40;1.30;;;;;;;;;;5034313;28;20191;-57
2023/03/23 09:20:27;;;;;;;2.45;1.42;;;;;;;;;;5046595;28;20321;-57
2023/03/23 09:22:54;;;;;;;3.35;1.38;;;;;;;;;;5037174;28;20266;-58
2023/03/23 09:25:22;;;;;;;1.40;1.30;;;;;;;;;;5048858;28;20180;-57
2023/03/23 09:27:55;;;;;;;2.22;1.10;;;;;;;;;;5040737;28;20191;-56
2023/03/23 09:30:21;;;;;;;2.10;1.10;;;;;;;;;;5044940;28;20576;-57
2023/03/23 09:32:51;;;;;;;1.27;1.20;;;;;;;;;;5053503;28;20187;-57
2023/03/23 09:35:17;;;;;;;1.40;1.30;;;;;;;;;;5045699;28;20266;-57
2023/03/23 09:37:44;;;;;;;3.08;1.48;;;;;;;;;;5044732;28;20214;-56
2023/03/23 09:40:14;;;;;;;2.10;1.60;;;;;;;;;;5042351;28;20303;-57
2023/03/23 09:42:56;;;;;;;1.30;1.20;;;;;;;;;;5034659;28;20172;-57
2023/03/23 09:45:41;;;;;;;1.75;1.38;;;;;;;;;;5039468;28;20186;-57
2023/03/23 09:48:13;;;;;;;1.50;1.30;;;;;;;;;;5054160;28;20269;-57
2023/03/23 09:50:41;;;;;;;1.35;1.25;;;;;;;;;;5045664;28;20487;-57
2023/03/23 09:53:11;;;;;;;1.50;1.40;;;;;;;;;;5048233;28;20179;-57
2023/03/23 09:55:37;;;;;;;1.52;1.30;;;;;;;;;;5041786;28;20191;-56
2023/03/23 09:58:11;;;;;;;3.17;1.30;;;;;;;;;;5037898;28;20507;-57
2023/03/23 10:00:39;;;;;;;2.03;1.48;;;;;;;;;;5048433;28;20184;-57
2023/03/23 10:03:15;;;;;;;1.52;1.30;;;;;;;;;;5034423;28;20234;-57
2023/03/23 10:05:51;;;;;;;1.92;1.30;;;;;;;;;;5042505;28;20225;-56
2023/03/23 10:08:18;;;;;;;1.50;1.38;;;;;;;;;;5045585;28;20171;-57
2023/03/23 10:10:56;;;;;;;2.55;1.40;;;;;;;;;;5048063;28;20187;-56
2023/03/23 10:13:45;;;;;;;1.60;1.38;;;;;;;;;;5033190;28;20220;-56
2023/03/23 10:16:15;;;;;;;1.83;1.38;;;;;;;;;;5041854;28;20179;-57
2023/03/23 10:18:47;;;;;;;1.45;1.35;;;;;;;;;;5038512;28;20686;-57
2023/03/23 10:21:17;;;;;;;2.67;1.42;;;;;;;;;;5052743;28;20187;-57
2023/03/23 10:23:55;;;;;;;1.58;1.40;;;;;;;;;;5048465;28;20187;-57
2023/03/23 10:26:33;;;;;;;2.13;1.40;;;;;;;;;;5038904;28;20190;-57
2023/03/23 10:29:10;;;;;;;2.53;1.25;;;;;;;;;;5044007;28;20182;-57
2023/03/23 10:31:41;;;;;;;2.20;1.48;;;;;;;;;;5048465;28;20569;-57
2023/03/23 10:34:19;;;;;;;2.10;1.48;;;;;;;;;;5037793;28;20184;-57
2023/03/23 10:37:01;;;;;;;1.65;1.17;;;;;;;;;;5053868;28;20210;-57
2023/03/23 10:39:31;;;;;;;2.35;1.42;;;;;;;;;;5056811;28;20213;-57
2023/03/23 10:42:06;;;;;;;2.85;1.40;;;;;;;;;;5045847;28;20238;-57
2023/03/23 10:44:32;;;;;;;1.70;1.52;;;;;;;;;;5040823;28;20183;-57
2023/03/23 10:47:00;;;;;;;2.17;1.40;;;;;;;;;;5029468;28;20254;-57
2023/03/23 10:49:30;;;;;;;1.95;1.30;;;;;;;;;;5036200;28;20199;-57
2023/03/23 10:52:15;;;;;;;2.22;1.13;;;;;;;;;;5049159;28;20565;-57
2023/03/23 10:54:47;;;;;;;3.95;1.80;;;;;;;;;;5042624;28;20200;-57
2023/03/23 10:57:21;;;;;;;1.77;1.65;;;;;;;;;;5042842;28;20510;-57
2023/03/23 10:59:47;;;;;;;2.80;1.40;;;;;;;;;;5050257;28;20267;-57
2023/03/23 11:02:15;;;;;;;1.85;1.52;;;;;;;;;;5044177;28;20262;-57
2023/03/23 11:04:46;;;;;;;1.73;1.50;;;;;;;;;;5041824;28;20167;-57
2023/03/23 11:07:16;;;;;;;2.17;1.42;;;;;;;;;;5032359;28;20606;-57
2023/03/23 11:09:55;;;;;;;1.83;1.58;;;;;;;;;;5040388;28;20230;-58
2023/03/23 11:12:22;;;;;;;2.08;1.50;;;;;;;;;;5040014;28;20184;-57
2023/03/23 11:14:49;;;;;;;2.30;1.60;;;;;;;;;;5034277;28;20274;-57
2023/03/23 11:17:24;;;;;;;1.90;1.55;;;;;;;;;;5037200;28;20230;-57
2023/03/23 11:19:50;;;;;;;2.53;1.75;;;;;;;;;;5047382;28;20309;-56
2023/03/23 11:22:18;;;;;;;1.60;1.50;;;;;;;;;;5048636;28;20176;-57
2023/03/23 11:24:46;;;;;;;2.00;1.23;;;;;;;;;;5049481;28;20183;-57
2023/03/23 11:27:12;;;;;;;3.83;1.77;;;;;;;;;;5037731;28;20186;-57
2023/03/23 11:29:49;;;;;;;1.60;1.50;;;;;;;;;;5048225;28;20229;-57
2023/03/23 11:32:17;;;;;;;1.98;1.60;;;;;;;;;;5031117;28;20179;-57
2023/03/23 11:34:45;;;;;;;3.33;1.70;;;;;;;;;;5035164;28;20191;-57
2023/03/23 11:37:17;;;;;;;1.75;1.50;;;;;;;;;;5050482;28;20234;-57
2023/03/23 11:39:53;;;;;;;1.90;1.50;;;;;;;;;;5045767;28;20191;-57
2023/03/23 11:42:21;;;;;;;2.40;1.33;;;;;;;;;;5043609;28;20183;-57
2023/03/23 11:44:47;;;;;;;1.95;1.60;;;;;;;;;;5027907;28;20599;-57
2023/03/23 11:47:35;;;;;;;2.15;1.63;;;;;;;;;;5031193;28;20594;-58
2023/03/23 11:50:20;;;;;;;2.35;1.70;;;;;;;;;;5038460;28;20229;-57
2023/03/23 11:53:05;;;;;;;1.98;1.50;;;;;;;;;;5036099;28;20208;-57
2023/03/23 11:55:55;;;;;;;1.83;1.50;;;;;;;;;;5038666;28;20542;-56
2023/03/23 11:58:21;;;;;;;1.60;1.50;;;;;;;;;;5027837;28;20487;-55
2023/03/23 12:00:56;;;;;;;2.35;1.27;;;;;;;;;;5035674;28;20192;-56
2023/03/23 12:03:40;;;;;;;1.80;1.38;;;;;;;;;;5034846;28;20215;-55
2023/03/23 12:06:07;;;;;;;1.75;1.30;;;;;;;;;;5043348;28;20721;-55
2023/03/23 12:08:33;;;;;;;1.38;1.20;;;;;;;;;;5031630;28;20176;-56
2023/03/23 12:11:12;;;;;;;1.30;1.20;;;;;;;;;;5039997;28;20188;-56
2023/03/23 12:13:52;;;;;;;1.70;1.10;;;;;;;;;;5039475;28;20787;-56
2023/03/23 12:16:18;;;;;;;1.15;1.05;;;;;;;;;;5034241;28;20233;-55
2023/03/23 12:18:51;;;;;;;1.40;1.30;;;;;;;;;;5027188;28;20219;-55
2023/03/23 12:21:27;;;;;;;1.33;1.23;;;;;;;;;;5031357;28;20179;-55
2023/03/23 12:24:12;;;;;;;1.63;1.30;;;;;;;;;;5030292;28;20215;-55
2023/03/23 12:26:41;;;;;;;1.70;1.20;;;;;;;;;;5048465;28;20186;-55
2023/03/23 12:29:26;;;;;;;1.20;1.10;;;;;;;;;;5036068;28;20217;-55
2023/03/23 12:31:52;;;;;;;1.45;1.35;;;;;;;;;;5031144;28;20323;-55
2023/03/23 12:34:29;;;;;;;1.55;1.30;;;;;;;;;;5038517;28;20201;-56
2023/03/23 12:36:58;;;;;;;1.48;1.38;;;;;;;;;;5027297;28;20199;-56
2023/03/23 12:39:49;;;;;;;1.52;1.35;;;;;;;;;;5037410;28;20190;-55
2023/03/23 12:42:30;;;;;;;4.20;0.98;;;;;;;;;;5028591;28;20179;-55
2023/03/23 12:45:06;;;;;;;2.35;1.33;;;;;;;;;;5032487;28;20183;-55
2023/03/23 12:47:37;;;;;;;1.65;1.13;;;;;;;;;;5030864;28;20183;-55
2023/03/23 12:50:13;;;;;;;1.23;1.13;;;;;;;;;;5037004;28;20203;-55
2023/03/23 12:52:59;;;;;;;1.60;1.20;;;;;;;;;;5035334;28;20227;-55
2023/03/23 12:55:54;;;;;;;3.55;1.20;;;;;;;;;;5021341;28;20188;-55
2023/03/23 12:58:22;;;;;;;1.63;1.00;;;;;;;;;;5013517;28;20227;-55
2023/03/23 13:01:09;;;;;;;1.30;0.90;;;;;;;;;;5028892;28;20183;-55
2023/03/23 13:03:45;;;;;;;1.45;0.85;;;;;;;;;;5032496;28;20915;-55
2023/03/23 13:06:16;;;;;;;2.55;1.38;;;;;;;;;;5035201;28;20800;-55
2023/03/23 13:08:49;;;;;;;1.60;1.17;;;;;;;;;;5038894;28;20555;-55
2023/03/23 13:11:19;;;;;;;1.15;1.05;;;;;;;;;;5041422;28;20190;-55
2023/03/23 13:13:47;;;;;;;1.95;1.30;;;;;;;;;;5037527;28;20214;-55
2023/03/23 13:16:32;;;;;;;2.13;1.20;;;;;;;;;;5040118;28;20183;-55
2023/03/23 13:19:04;;;;;;;1.38;1.00;;;;;;;;;;5039056;28;20647;-55
2023/03/23 13:21:32;;;;;;;1.10;1.00;;;;;;;;;;5030784;28;20188;-55
2023/03/23 13:24:01;;;;;;;1.27;1.00;;;;;;;;;;5031973;28;20181;-55
2023/03/23 13:26:27;;;;;;;0.98;0.90;;;;;;;;;;5031179;28;20228;-55
2023/03/23 13:29:25;;;;;;;0.98;0.98;;;;;;;;;;5037641;28;20614;-55
2023/03/23 13:31:51;;;;;;;1.17;0.90;;;;;;;;;;5042015;28;20241;-55
2023/03/23 13:34:17;;;;;;;2.30;0.98;;;;;;;;;;5034422;28;20198;-55
2023/03/23 13:36:45;;;;;;;2.13;0.98;;;;;;;;;;5031054;28;20207;-54
2023/03/23 13:39:23;;;;;;;0.80;0.75;;;;;;;;;;5036730;28;20309;-54
2023/03/23 13:42:00;;;;;;;2.05;1.10;;;;;;;;;;5034034;28;20172;-54
2023/03/23 13:44:27;;;;;;;1.60;1.00;;;;;;;;;;5032781;28;20422;-55
2023/03/23 13:47:17;;;;;;;1.10;1.00;;;;;;;;;;5034889;28;20555;-56
2023/03/23 13:49:47;;;;;;;1.13;1.00;;;;;;;;;;5033499;28;20184;-55
2023/03/23 13:52:23;;;;;;;1.10;1.00;;;;;;;;;;5038708;28;20182;-55
2023/03/23 13:54:49;;;;;;;0.80;0.80;;;;;;;;;;5039416;28;20233;-56
2023/03/23 13:57:21;;;;;;;1.00;1.00;;;;;;;;;;5029622;28;20314;-55
2023/03/23 13:59:49;;;;;;;0.90;0.90;;;;;;;;;;5032969;28;20291;-56
2023/03/23 14:02:30;;;;;;;1.25;0.98;;;;;;;;;;5028021;28;20202;-55
2023/03/23 14:04:56;;;;;;;1.23;1.13;;;;;;;;;;5033543;28;20211;-56
2023/03/23 14:07:24;;;;;;;1.10;1.00;;;;;;;;;;5035677;28;20180;-55
2023/03/23 14:09:51;;;;;;;1.63;0.93;;;;;;;;;;5049404;28;20179;-55
2023/03/23 14:12:27;;;;;;;1.88;1.05;;;;;;;;;;5034223;28;20183;-55
2023/03/23 14:15:01;;;;;;;0.93;0.90;;;;;;;;;;5050782;28;20194;-55
2023/03/23 14:17:29;;;;;;;1.05;0.90;;;;;;;;;;5028756;28;20215;-55
2023/03/23 14:19:56;;;;;;;1.08;1.00;;;;;;;;;;5031237;28;20701;-56
2023/03/23 14:22:27;;;;;;;0.90;0.80;;;;;;;;;;5030948;28;20817;-56
2023/03/23 14:24:59;;;;;;;0.70;0.70;;;;;;;;;;5034861;28;20189;-55
2023/03/23 14:27:27;;;;;;;0.60;0.60;;;;;;;;;;5032775;28;20269;-55
2023/03/23 14:30:04;;;;;;;1.00;0.80;;;;;;;;;;5045065;28;20605;-55
2023/03/23 14:32:32;;;;;;;0.73;0.70;;;;;;;;;;5029886;28;20559;-55
2023/03/23 14:34:59;;;;;;;0.70;0.70;;;;;;;;;;5047486;28;20179;-55
2023/03/23 14:37:26;;;;;;;0.98;0.90;;;;;;;;;;5029192;28;20208;-55
2023/03/23 14:39:53;;;;;;;2.55;1.00;;;;;;;;;;5039416;28;20591;-54
2023/03/23 14:42:30;;;;;;;0.80;0.73;;;;;;;;;;5028582;28;20311;-56
2023/03/23 14:44:56;;;;;;;0.95;0.80;;;;;;;;;;5026175;28;20184;-55
2023/03/23 14:47:33;;;;;;;0.63;0.63;;;;;;;;;;5035533;28;20188;-55
2023/03/23 14:50:01;;;;;;;0.80;0.70;;;;;;;;;;5036955;28;20472;-55
2023/03/23 14:52:28;;;;;;;3.53;0.93;;;;;;;;;;5030627;28;20259;-55
2023/03/23 14:54:55;;;;;;;0.65;0.60;;;;;;;;;;5029458;28;20192;-55
2023/03/23 14:57:30;;;;;;;0.75;0.75;;;;;;;;;;5028861;28;20204;-55